Data for 09/10/2018

Time Sea-Level Adjusted Pressure Absolute Pressure Temperature Relative Humidity Dew Point   
(mb) (inHg) (mb) (inHg) (C) (F) (%) (C) (F)
00:05 1018 30.06 847 25.01 13.2 55.7 39 -0.4 31.3
00:10 1018 30.06 847 25.01 13.1 55.5 39 -0.5 31.1
00:15 1018 30.06 847 25.01 13 55.4 40 -0.2 31.7
00:20 1018 30.06 847 25.01 13.1 55.5 43 1 33.8
00:25 1018 30.06 847 25.01 13.2 55.7 38 -0.8 30.6
00:30 1018 30.06 847 25.01 13.2 55.8 41 0.4 32.6
00:35 1018 30.06 847 25.01 13.1 55.6 39 -0.3 31.4
00:40 1018 30.06 847 25.01 13 55.3 39 -0.5 31.1
00:45 1018 30.06 847 25.01 12.8 55.1 39 -0.7 30.8
00:50 1018 30.06 847 25.01 13 55.3 46 1.8 35.3
00:55 1018 30.06 847 25.01 13.1 55.6 40 -0.1 31.9
01:00 1018 30.06 847 25.01 13 55.4 39 -0.5 31.1
01:05 1018 30.06 847 25.01 13.3 56 38 -0.8 30.6
01:10 1018 30.06 847 25.01 13.2 55.8 45 1.6 34.8
01:15 1018 30.06 847 25.01 12.8 55.1 43 0.7 33.3
01:20 1018 30.06 847 25.01 12.6 54.7 43 0.5 33
01:25 1018 30.06 847 25.01 12.5 54.5 44 0.8 33.4
01:30 1018 30.06 847 25.01 12.4 54.2 43 0.2 32.3
01:35 1018 30.06 847 25.01 12.3 54.1 47 1.4 34.5
01:40 1018 30.06 847 25.01 12.3 54.2 44 0.5 33
01:45 1018 30.06 847 25.01 12 53.7 42 -0.4 31.4
01:50 1018 30.06 847 25.01 12 53.5 54 3 37.5
01:55 1018 30.06 847 25.01 11.5 52.6 50 1.4 34.5
02:00 1018 30.06 847 25.01 11.2 52.2 49 0.9 33.6
02:05 1018 30.06 847 25.01 11.3 52.3 45 -0.1 31.8
02:10 1018 30.06 847 25.01 11.3 52.4 45 -0.1 31.8
02:15 1018 30.06 847 25.01 11.4 52.5 46 0.2 32.4
02:20 1018 30.06 847 25.01 11.2 52.1 45 -0.2 31.6
02:25 1018 30.06 847 25.01 11.4 52.6 43 -0.6 30.9
02:30 1018 30.06 847 25.01 11.7 53 45 0.2 32.4
02:35 1018 30.06 847 25.01 11.8 53.3 43 -0.2 31.6
02:40 1018 30.06 847 25.01 11.9 53.5 48 1.4 34.4
02:45 1018 30.06 847 25.01 11.7 53 46 0.6 33.1
02:50 1018 30.06 847 25.01 11.4 52.4 44 -0.3 31.5
02:55 1018 30.06 847 25.01 11.3 52.3 44 -0.4 31.2
03:00 1018 30.06 847 25.01 11.1 51.9 46 -0.2 31.7
03:05 1018 30.06 847 25.01 10.7 51.2 47 -0.1 31.8
03:10 1018 30.06 847 25.01 10.4 50.8 47 -0.2 31.6
03:15 1018 30.06 847 25.01 10.5 50.9 47 -0.3 31.4
03:20 1018 30.06 847 25.01 10.9 51.7 47 0.2 32.3
03:25 1018 30.06 847 25.01 10.8 51.4 48 0.1 32.2
03:30 1018 30.06 847 25.01 10.7 51.3 48 0.2 32.4
03:35 1018 30.06 847 25.01 10.7 51.3 48 0.2 32.3
03:40 1018 30.06 847 25.01 10.8 51.4 48 0.1 32.2
03:45 1018 30.06 847 25.01 10.4 50.7 49 0.2 32.4
03:50 1018 30.06 847 25.01 10.1 50.3 50 0.1 32.3
03:55 1018 30.06 847 25.01 10.2 50.4 49 0 32
04:00 1018 30.06 847 25.01 10.5 50.9 48 0.1 32.1
04:05 1018 30.06 847 25.01 10.7 51.2 49 0.3 32.6
04:10 1018 30.06 847 25.01 10.5 51 49 0.3 32.6
04:15 1018 30.06 847 25.01 10.4 50.6 50 0.3 32.6
04:20 1018 30.06 847 25.01 10.3 50.5 50 0.3 32.6
04:25 1018 30.06 847 25.01 10.2 50.4 50 0.4 32.7
04:30 1018 30.06 847 25.01 10.1 50.2 50 0.3 32.6
04:35 1018 30.06 847 25.01 10.2 50.3 51 0.4 32.7
04:40 1018 30.06 847 25.01 10.1 50.2 50 0.3 32.5
04:45 1018 30.06 847 25.01 10.2 50.4 50 0.2 32.3
04:50 1018 30.06 847 25.01 10.4 50.6 50 0.4 32.7
04:55 1018 30.06 847 25.01 10.2 50.4 51 0.5 32.9
05:00 1018 30.06 847 25.01 10.1 50.2 51 0.6 33
05:05 1018 30.06 847 25.01 9.9 49.9 52 0.7 33.2
05:10 1018 30.06 847 25.01 9.7 49.4 53 0.6 33.1
05:15 1018 30.06 847 25.01 9.4 48.9 53 0.4 32.6
05:20 1018 30.06 847 25.01 9.5 49 53 0.4 32.8
05:25 1018 30.06 847 25.01 9.5 49.2 53 0.4 32.7
05:30 1018 30.06 847 25.01 9.5 49.1 53 0.3 32.6
05:35 1018 30.06 847 25.01 9.5 49.1 52 0.3 32.5
05:40 1018 30.06 847 25.01 9.7 49.5 51 0.1 32.3
05:45 1018 30.06 847 25.01 9.9 49.8 50 0.1 32.2
05:50 1018 30.06 847 25.01 9.9 49.8 51 0.2 32.3
05:55 1018 30.06 847 25.01 9.8 49.6 51 0.1 32.2
06:00 1018 30.06 847 25.01 9.9 49.8 49 -0.2 31.6
06:05 1018 30.06 847 25.01 10.3 50.5 48 -0.2 31.7
06:10 1018 30.06 847 25.01 10.4 50.7 48 -0.1 31.7
06:15 1018 30.06 847 25.01 10.4 50.8 47 -0.3 31.5
06:20 1018 30.06 847 25.01 10.6 51.1 47 -0.2 31.7
06:25 1018 30.06 847 25.01 10.6 51 48 -0 32
06:30 1018 30.06 847 25.01 10.4 50.6 48 -0 32
06:35 1018 30.06 847 25.01 10.2 50.4 50 0.3 32.5
06:40 1018 30.06 847 25.01 10.1 50.2 50 0.1 32.3
06:45 1018 30.06 847 25.01 10 50 50 0.1 32.2
06:50 1018 30.06 847 25.01 10.1 50.2 49 -0 31.9
06:55 1018 30.06 847 25.01 10.3 50.6 47 -0.3 31.4
07:00 1018 30.06 847 25.01 10.7 51.2 46 -0.4 31.3
07:05 1018 30.06 848 25.04 11.1 52 46 -0.2 31.7
07:10 1018 30.06 848 25.04 11.5 52.7 45 0.1 32.2
07:15 1018 30.06 848 25.04 11.7 53.1 45 0.4 32.6
07:20 1018 30.06 848 25.04 11.7 53.1 45 0.2 32.3
07:25 1018 30.06 848 25.04 12.1 53.8 45 0.6 33.1
07:30 1018 30.06 847 25.01 12.4 54.4 44 0.7 33.2
07:35 1018 30.06 847 25.01 12.7 54.9 45 1.1 33.9
07:40 1018 30.06 847 25.01 13.2 55.8 44 1.3 34.3
07:45 1018 30.06 847 25.01 13.6 56.4 43 1.2 34.2
07:50 1018 30.06 847 25.01 13.8 56.8 41 0.8 33.4
07:55 1018 30.06 847 25.01 13.4 56 41 0.6 33.1
08:00 1018 30.06 847 25.01 13.8 56.8 40 0.6 33.1
08:05 1018 30.06 847 25.01 14.7 58.5 38 0.5 33
08:10 1018 30.06 847 25.01 15.1 59.2 38 1 33.9
08:15 1018 30.06 847 25.01 15.8 60.5 36 0.7 33.3
08:20 1018 30.06 847 25.01 16.3 61.4 36 1.2 34.1
08:25 1018 30.06 847 25.01 16.2 61.2 37 1.4 34.6
08:30 1018 30.06 847 25.01 16.3 61.3 34 0.6 33.1
08:35 1018 30.06 847 25.01 16.8 62.2 34 0.9 33.6
08:40 1018 30.06 847 25.01 17.7 63.8 32 0.9 33.5
08:45 1018 30.06 847 25.01 18.3 64.9 29 -0.1 31.9
08:50 1018 30.06 847 25.01 17.7 63.9 30 0.2 32.4
08:55 1018 30.06 847 25.01 18 64.3 30 0.5 32.9
09:00 1018 30.06 847 25.01 18.9 66 27 -0.2 31.6
09:05 1018 30.06 847 25.01 18.7 65.7 28 -0.2 31.7
09:10 1018 30.06 847 25.01 18.8 65.8 28 0.1 32.2
09:15 1018 30.06 847 25.01 19 66.1 28 0.3 32.6
09:20 1018 30.06 847 25.01 19.6 67.2 27 0 32.1
09:25 1018 30.06 847 25.01 19.7 67.4 28 0.7 33.2
09:30 1018 30.06 847 25.01 19 66.2 29 0.7 33.3
09:35 1018 30.06 847 25.01 18.5 65.3 29 0.4 32.8
09:40 1018 30.06 847 25.01 19.7 67.4 27 0.3 32.5
09:45 1018 30.06 847 25.01 20.3 68.5 28 1.5 34.8
09:50 1018 30.06 847 25.01 19.7 67.5 28 0.9 33.6
09:55 1018 30.06 847 25.01 19.7 67.5 28 0.7 33.3
10:00 1018 30.06 847 25.01 20.6 69.1 26 0.5 32.9
10:05 1017 30.03 847 25.01 21.1 69.9 26 0.8 33.5
10:10 1017 30.03 847 25.01 20.9 69.6 25 0.6 33.1
10:15 1017 30.03 847 25.01 20.8 69.5 26 1.1 33.9
10:20 1017 30.03 846 24.98 20.9 69.6 26 0.9 33.6
10:25 1017 30.03 846 24.98 20.7 69.2 26 0.6 33.1
10:30 1017 30.03 846 24.98 21.4 70.5 25 0.5 32.8
10:35 1017 30.03 846 24.98 20.9 69.6 24 -0.3 31.4
10:40 1017 30.03 846 24.98 21.3 70.3 24 0.1 32.1
10:45 1017 30.03 846 24.98 22 71.6 22 -0.5 31.1
10:50 1017 30.03 846 24.98 21.7 71.1 25 0.8 33.4
10:55 1017 30.03 846 24.98 21.6 70.9 23 -0.1 31.9
11:00 1017 30.03 846 24.98 21.7 71 25 1.1 33.9
11:05 1017 30.03 846 24.98 22.2 72 24 0.6 33.1
11:10 1017 30.03 846 24.98 22.6 72.8 20 -1.3 29.7
11:15 1016 30 846 24.98 22 71.6 22 -0.6 30.9
11:20 1016 30 845 24.95 22.5 72.4 23 0.5 32.8
11:25 1016 30 845 24.95 22.6 72.6 24 1.3 34.3
11:30 1016 30 845 24.95 22.6 72.8 23 0.9 33.7
11:35 1016 30 845 24.95 23.2 73.7 21 -0.4 31.3
11:40 1016 30 845 24.95 23.4 74.1 20 -0.7 30.8
11:45 1016 30 845 24.95 24.5 76.2 18 -1.2 29.9
11:50 1016 30 845 24.95 24.3 75.8 19 -0.7 30.8
11:55 1016 30 845 24.95 24.6 76.2 19 -0.4 31.3
12:00 1016 30 845 24.95 24.7 76.4 19 0 32.1
12:05 1016 30 845 24.95 24.8 76.6 19 -0 32
12:10 1015 29.97 845 24.95 24.8 76.6 18 -0.9 30.3
12:15 1015 29.97 845 24.95 25.4 77.7 18 -0.7 30.7
12:20 1015 29.97 844 24.92 25.1 77.1 20 0.6 33
12:25 1015 29.97 844 24.92 25.3 77.5 17 -1.2 29.8
12:30 1015 29.97 844 24.92 26.1 78.9 16 -1.8 28.8
12:35 1015 29.97 844 24.92 26 78.9 17 -0.7 30.8
12:40 1015 29.97 844 24.92 26.1 79 14 -3.1 26.4
12:45 1015 29.97 844 24.92 26.4 79.5 14 -3.3 26
12:50 1015 29.97 844 24.92 26.3 79.4 13 -3.7 25.4
12:55 1015 29.97 844 24.92 26.7 80.1 15 -2.2 28
13:00 1014 29.94 844 24.92 26.4 79.4 14 -2.6 27.3
13:05 1014 29.94 844 24.92 26.7 80 14 -2.6 27.3
13:10 1014 29.94 843 24.89 26.8 80.2 15 -2 28.5
13:15 1014 29.94 843 24.89 26.1 78.9 14 -2.8 26.9
13:20 1014 29.94 843 24.89 26.5 79.7 14 -3.1 26.4
13:25 1014 29.94 843 24.89 26.9 80.4 14 -2.9 26.8
13:30 1014 29.94 843 24.89 26.7 80.1 14 -3 26.7
13:35 1014 29.94 843 24.89 27 80.5 13 -3 26.6
13:40 1014 29.94 843 24.89 26.4 79.5 14 -3.1 26.4
13:45 1014 29.94 843 24.89 27 80.7 13 -3.3 26
13:50 1014 29.94 843 24.89 27.4 81.3 13 -3.3 26.1
13:55 1014 29.94 843 24.89 27.5 81.6 12 -3.9 24.9
14:00 1014 29.94 843 24.89 27.3 81.1 12 -4.3 24.2
14:05 1013 29.91 843 24.89 26.5 79.7 13 -4.1 24.6
14:10 1013 29.91 843 24.89 26.2 79.1 13 -4.1 24.5
14:15 1013 29.91 843 24.89 26.2 79.1 12 -5 23
14:20 1013 29.91 842 24.86 25.5 78 13 -5.1 22.8
14:25 1013 29.91 842 24.86 26.3 79.4 12 -5 23
14:30 1013 29.91 842 24.86 26.2 79.2 13 -4.2 24.4
14:35 1013 29.91 842 24.86 26.2 79.2 14 -3.4 25.9
14:40 1013 29.91 842 24.86 26.8 80.3 12 -4.5 23.9
14:45 1013 29.91 842 24.86 27.2 81 11 -5.6 21.9
14:50 1013 29.91 842 24.86 28 82.5 11 -5.3 22.5
14:55 1013 29.91 842 24.86 28.1 82.5 13 -2.9 26.7
15:00 1013 29.91 842 24.86 27.2 80.9 13 -3.6 25.5
15:05 1013 29.91 842 24.86 26.6 79.9 13 -3.6 25.6
15:10 1013 29.91 842 24.86 25.7 78.2 13 -4.5 23.9
15:15 1012 29.88 842 24.86 25.5 77.8 14 -3.4 25.8
15:20 1012 29.88 842 24.86 25.6 78.1 12 -5.3 22.5
15:25 1012 29.88 842 24.86 25.5 77.8 14 -4.2 24.5
15:30 1012 29.88 842 24.86 25.4 77.8 13 -4.9 23.1
15:35 1012 29.88 842 24.86 25.8 78.5 12 -5.2 22.6
15:40 1012 29.88 841 24.83 25.7 78.2 12 -5.2 22.7
15:45 1012 29.88 841 24.83 26.2 79.1 12 -4.8 23.4
15:50 1012 29.88 841 24.83 26.2 79.2 12 -4.7 23.6
15:55 1012 29.88 841 24.83 26.1 78.9 12 -4.8 23.4
16:00 1012 29.88 841 24.83 26.2 79.2 12 -5.1 22.8
16:05 1012 29.88 841 24.83 26.7 80.1 12 -5.3 22.5
16:10 1012 29.88 841 24.83 27 80.7 12 -5 22.9
16:15 1012 29.88 841 24.83 26.5 79.7 12 -5.4 22.3
16:20 1012 29.88 841 24.83 26.6 79.9 12 -4.6 23.8
16:25 1012 29.88 841 24.83 26.1 78.9 11 -6.2 20.9
16:30 1012 29.88 841 24.83 26 78.8 13 -4.2 24.5
16:35 1012 29.88 841 24.83 26.4 79.4 12 -5.1 22.8
16:40 1012 29.88 841 24.83 26.3 79.4 12 -4.6 23.8
16:45 1012 29.88 841 24.83 25.7 78.2 14 -3.5 25.7
16:50 1012 29.88 841 24.83 25.5 77.8 14 -4.1 24.7
16:55 1012 29.88 841 24.83 25.5 77.8 16 -2.1 28.3
17:00 1012 29.88 841 24.83 25.6 78 15 -2.8 26.9
17:05 1012 29.88 841 24.83 25.2 77.3 19 -0.1 31.8
17:10 1012 29.88 841 24.83 25.1 77.3 15 -3.5 25.7
17:15 1012 29.88 841 24.83 25.1 77.1 15 -3.2 26.3
17:20 1012 29.88 841 24.83 24.8 76.7 15 -3.7 25.3
17:25 1012 29.88 841 24.83 24.6 76.2 17 -2.1 28.2
17:30 1012 29.88 841 24.83 24.5 76.1 17 -1.9 28.6
17:35 1012 29.88 841 24.83 24.5 76.2 14 -4.1 24.7
17:40 1012 29.88 841 24.83 24.6 76.2 15 -3.2 26.2
17:45 1012 29.88 841 24.83 24.7 76.4 16 -2.9 26.7
17:50 1012 29.88 841 24.83 24.5 76.1 16 -3.1 26.3
17:55 1012 29.88 841 24.83 24.4 75.8 18 -1.4 29.6
18:00 1012 29.88 841 24.83 24.1 75.4 17 -2.6 27.3
18:05 1012 29.88 841 24.83 24 75.2 19 -1.1 30
18:10 1012 29.88 841 24.83 23.8 74.9 18 -1.8 28.7
18:15 1012 29.88 841 24.83 23.8 74.8 15 -4.1 24.7
18:20 1012 29.88 841 24.83 23.7 74.7 15 -4.6 23.8
18:25 1012 29.88 841 24.83 23.7 74.6 13 -6 21.2
18:30 1012 29.88 841 24.83 23.6 74.4 14 -5.7 21.7
18:35 1012 29.88 841 24.83 23.2 73.8 15 -4.7 23.6
18:40 1012 29.88 841 24.83 22.7 72.9 20 -1 30.2
18:45 1012 29.88 841 24.83 22.1 71.8 21 -1.2 29.8
18:50 1012 29.88 841 24.83 21.6 70.8 22 -0.9 30.4
18:55 1012 29.88 841 24.83 21.8 71.2 20 -2.1 28.2
19:00 1012 29.88 841 24.83 22 71.5 15 -6 21.1
19:05 1012 29.88 841 24.83 22 71.6 14 -6.6 20
19:10 1012 29.88 841 24.83 22.2 71.9 14 -6.5 20.3
19:15 1012 29.88 841 24.83 22.3 72.1 14 -6.8 19.8
19:20 1012 29.88 841 24.83 22.3 72.1 14 -6.7 19.9
19:25 1012 29.88 841 24.83 22.1 71.7 14 -7 19.5
19:30 1012 29.88 841 24.83 22 71.6 14 -6.5 20.4
19:35 1012 29.88 841 24.83 22.1 71.7 14 -6.9 19.6
19:40 1012 29.88 841 24.83 22.1 71.8 14 -6.6 20.1
19:45 1012 29.88 841 24.83 22.1 71.8 13 -7 19.5
19:50 1012 29.88 841 24.83 22.1 71.9 14 -6.9 19.6
19:55 1012 29.88 842 24.86 22 71.7 14 -6.6 20.1
20:00 1012 29.88 841 24.83 21.6 70.9 14 -6.5 20.3
20:05 1012 29.88 841 24.83 21.3 70.4 14 -7.1 19.1
20:10 1012 29.88 842 24.86 21.6 70.8 14 -7.2 19.1
20:15 1012 29.88 842 24.86 21.8 71.2 13 -7.4 18.7
20:20 1012 29.88 842 24.86 21.9 71.3 13 -7.4 18.8
20:25 1012 29.88 842 24.86 21.8 71.2 14 -7.2 19.1
20:30 1012 29.88 842 24.86 21.6 70.8 14 -7.2 19
20:35 1012 29.88 842 24.86 21.4 70.6 15 -6.5 20.3
20:40 1012 29.88 842 24.86 20.7 69.3 14 -7.3 18.9
20:45 1012 29.88 842 24.86 20.9 69.5 16 -5.6 21.9
20:50 1013 29.91 842 24.86 19.7 67.5 21 -3.4 26
20:55 1013 29.91 842 24.86 18.6 65.4 20 -4.8 23.4
21:00 1013 29.91 842 24.86 18.7 65.6 19 -5.2 22.7
21:05 1013 29.91 842 24.86 19 66.3 18 -5.7 21.7
21:10 1013 29.91 842 24.86 19.4 66.9 20 -4.1 24.6
21:15 1013 29.91 842 24.86 18.8 65.8 20 -4.3 24.3
21:20 1013 29.91 842 24.86 18.5 65.3 20 -4.8 23.3
21:25 1013 29.91 842 24.86 18.9 66 18 -5.8 21.5
21:30 1013 29.91 842 24.86 19.4 67 18 -5.1 22.8
21:35 1013 29.91 842 24.86 19.2 66.6 19 -5.1 22.8
21:40 1013 29.91 842 24.86 18.8 65.9 19 -5.2 22.7
21:45 1013 29.91 842 24.86 18.5 65.3 20 -4.9 23.2
21:50 1013 29.91 842 24.86 18.1 64.6 21 -4.3 24.3
21:55 1013 29.91 842 24.86 17.6 63.6 23 -3.5 25.7
22:00 1013 29.91 842 24.86 17.1 62.7 25 -3.1 26.4
22:05 1013 29.91 842 24.86 16.7 62.1 26 -2.8 26.9
22:10 1013 29.91 843 24.89 16.3 61.4 28 -2.3 27.9
22:15 1013 29.91 843 24.89 16.1 61 28 -2.2 28
22:20 1013 29.91 843 24.89 15.9 60.6 29 -2 28.4
22:25 1014 29.94 843 24.89 16 60.8 28 -2.2 28
22:30 1014 29.94 843 24.89 16.4 61.5 28 -2 28.4
22:35 1014 29.94 843 24.89 16.2 61.2 29 -1.6 29
22:40 1014 29.94 843 24.89 16.2 61.1 30 -1.4 29.6
22:45 1014 29.94 843 24.89 16 60.8 30 -1.4 29.6
22:50 1014 29.94 843 24.89 16.1 60.9 31 -1.1 30
22:55 1014 29.94 843 24.89 16 60.8 31 -0.9 30.3
23:00 1014 29.94 843 24.89 15.9 60.6 32 -0.9 30.5
23:05 1014 29.94 843 24.89 15.8 60.5 32 -0.7 30.7
23:10 1014 29.94 843 24.89 15.7 60.2 32 -0.7 30.8
23:15 1014 29.94 844 24.92 15.5 59.9 33 -0.5 31.1
23:20 1014 29.94 844 24.92 15.3 59.5 34 -0.5 31
23:25 1014 29.94 844 24.92 15.1 59.2 34 -0.5 31.2
23:30 1015 29.97 844 24.92 15 58.9 34 -0.5 31
23:35 1015 29.97 844 24.92 14.9 58.9 35 -0.3 31.5
23:40 1015 29.97 844 24.92 14.8 58.7 35 -0.2 31.6
23:45 1015 29.97 844 24.92 14.8 58.6 36 -0.1 31.9
23:50 1015 29.97 844 24.92 14.6 58.2 37 0.1 32.2
23:55 1015 29.97 844 24.92 14.4 58 37 0.1 32.2
24:00 1015 29.97 844 24.92 14.2 57.6 38 0.1 32.3